sensor_id;sensor_type;location;lat;lon;timestamp;P1;durP1;ratioP1;P2;durP2;ratioP2
7051;SDS011;3567;52.444;13.556;2023-04-01T00:00:50;4.15;;;2.20;;
7051;SDS011;3567;52.444;13.556;2023-04-01T00:03:17;2.80;;;2.50;;
7051;SDS011;3567;52.444;13.556;2023-04-01T00:05:42;2.45;;;1.80;;
7051;SDS011;3567;52.444;13.556;2023-04-01T00:08:08;5.28;;;2.05;;
7051;SDS011;3567;52.444;13.556;2023-04-01T00:10:33;2.60;;;1.90;;
7051;SDS011;3567;52.444;13.556;2023-04-01T00:12:58;2.20;;;1.80;;
7051;SDS011;3567;52.444;13.556;2023-04-01T00:15:24;2.63;;;1.85;;
7051;SDS011;3567;52.444;13.556;2023-04-01T00:17:49;7.00;;;2.25;;
7051;SDS011;3567;52.444;13.556;2023-04-01T00:20:15;3.33;;;1.90;;
7051;SDS011;3567;52.444;13.556;2023-04-01T00:22:40;4.35;;;2.63;;
7051;SDS011;3567;52.444;13.556;2023-04-01T00:25:06;3.03;;;2.15;;
7051;SDS011;3567;52.444;13.556;2023-04-01T00:27:32;3.50;;;2.60;;
7051;SDS011;3567;52.444;13.556;2023-04-01T00:29:57;3.90;;;2.45;;
7051;SDS011;3567;52.444;13.556;2023-04-01T00:32:23;2.33;;;2.22;;
7051;SDS011;3567;52.444;13.556;2023-04-01T00:34:51;2.28;;;2.05;;
7051;SDS011;3567;52.444;13.556;2023-04-01T00:37:18;3.15;;;2.58;;
7051;SDS011;3567;52.444;13.556;2023-04-01T00:39:44;2.47;;;2.05;;
7051;SDS011;3567;52.444;13.556;2023-04-01T00:42:09;2.55;;;2.35;;
7051;SDS011;3567;52.444;13.556;2023-04-01T00:44:36;2.47;;;2.25;;
7051;SDS011;3567;52.444;13.556;2023-04-01T00:47:02;6.97;;;2.80;;
7051;SDS011;3567;52.444;13.556;2023-04-01T00:49:29;4.15;;;2.33;;
7051;SDS011;3567;52.444;13.556;2023-04-01T00:51:58;6.10;;;2.80;;
7051;SDS011;3567;52.444;13.556;2023-04-01T00:54:27;6.38;;;3.15;;
7051;SDS011;3567;52.444;13.556;2023-04-01T00:56:56;3.92;;;2.63;;
7051;SDS011;3567;52.444;13.556;2023-04-01T00:59:26;3.30;;;2.78;;
7051;SDS011;3567;52.444;13.556;2023-04-01T01:01:54;5.00;;;3.20;;
7051;SDS011;3567;52.444;13.556;2023-04-01T01:04:24;3.97;;;3.22;;
7051;SDS011;3567;52.444;13.556;2023-04-01T01:06:57;3.65;;;3.13;;
7051;SDS011;3567;52.444;13.556;2023-04-01T01:12:53;5.95;;;3.13;;
7051;SDS011;3567;52.444;13.556;2023-04-01T01:15:21;6.78;;;3.17;;
7051;SDS011;3567;52.444;13.556;2023-04-01T01:18:27;7.65;;;3.30;;
7051;SDS011;3567;52.444;13.556;2023-04-01T01:26:58;5.72;;;3.47;;
7051;SDS011;3567;52.444;13.556;2023-04-01T01:34:47;4.38;;;3.97;;
7051;SDS011;3567;52.444;13.556;2023-04-01T01:37:20;4.97;;;4.38;;
7051;SDS011;3567;52.444;13.556;2023-04-01T01:39:54;6.95;;;3.85;;
7051;SDS011;3567;52.444;13.556;2023-04-01T01:42:23;3.63;;;3.30;;
7051;SDS011;3567;52.444;13.556;2023-04-01T01:44:51;4.22;;;3.67;;
7051;SDS011;3567;52.444;13.556;2023-04-01T01:47:18;6.20;;;3.97;;
7051;SDS011;3567;52.444;13.556;2023-04-01T01:49:46;8.00;;;4.38;;
7051;SDS011;3567;52.444;13.556;2023-04-01T01:52:12;7.63;;;4.60;;
7051;SDS011;3567;52.444;13.556;2023-04-01T01:54:47;8.52;;;4.85;;
7051;SDS011;3567;52.444;13.556;2023-04-01T01:57:17;5.55;;;3.97;;
7051;SDS011;3567;52.444;13.556;2023-04-01T01:59:44;8.60;;;5.22;;
7051;SDS011;3567;52.444;13.556;2023-04-01T02:02:12;13.95;;;5.35;;
7051;SDS011;3567;52.444;13.556;2023-04-01T02:04:40;7.78;;;5.25;;
7051;SDS011;3567;52.444;13.556;2023-04-01T02:07:10;10.30;;;4.97;;
7051;SDS011;3567;52.444;13.556;2023-04-01T02:09:40;11.35;;;4.63;;
7051;SDS011;3567;52.444;13.556;2023-04-01T02:12:07;10.35;;;5.78;;
7051;SDS011;3567;52.444;13.556;2023-04-01T02:17:37;8.90;;;4.47;;
7051;SDS011;3567;52.444;13.556;2023-04-01T02:20:07;8.75;;;4.65;;
7051;SDS011;3567;52.444;13.556;2023-04-01T02:22:39;8.63;;;4.65;;
7051;SDS011;3567;52.444;13.556;2023-04-01T02:25:08;6.00;;;4.53;;
7051;SDS011;3567;52.444;13.556;2023-04-01T02:27:37;8.90;;;4.75;;
7051;SDS011;3567;52.444;13.556;2023-04-01T02:30:04;8.52;;;4.25;;
7051;SDS011;3567;52.444;13.556;2023-04-01T02:32:30;8.10;;;4.65;;
7051;SDS011;3567;52.444;13.556;2023-04-01T02:34:58;8.50;;;4.90;;
7051;SDS011;3567;52.444;13.556;2023-04-01T02:37:28;9.52;;;4.63;;
7051;SDS011;3567;52.444;13.556;2023-04-01T02:39:53;10.35;;;5.63;;
7051;SDS011;3567;52.444;13.556;2023-04-01T02:42:18;5.70;;;3.90;;
7051;SDS011;3567;52.444;13.556;2023-04-01T02:44:44;12.43;;;5.30;;
7051;SDS011;3567;52.444;13.556;2023-04-01T02:47:09;9.00;;;4.82;;
7051;SDS011;3567;52.444;13.556;2023-04-01T02:49:35;9.82;;;4.45;;
7051;SDS011;3567;52.444;13.556;2023-04-01T02:52:00;8.57;;;5.10;;
7051;SDS011;3567;52.444;13.556;2023-04-01T02:54:25;9.18;;;5.43;;
7051;SDS011;3567;52.444;13.556;2023-04-01T02:56:51;6.93;;;4.88;;
7051;SDS011;3567;52.444;13.556;2023-04-01T02:59:16;9.43;;;4.40;;
7051;SDS011;3567;52.444;13.556;2023-04-01T03:01:42;10.32;;;5.68;;
7051;SDS011;3567;52.444;13.556;2023-04-01T03:04:07;7.47;;;5.20;;
7051;SDS011;3567;52.444;13.556;2023-04-01T03:06:33;7.93;;;4.50;;
7051;SDS011;3567;52.444;13.556;2023-04-01T03:08:58;9.68;;;5.07;;
7051;SDS011;3567;52.444;13.556;2023-04-01T03:11:23;7.25;;;3.97;;
7051;SDS011;3567;52.444;13.556;2023-04-01T03:13:49;8.10;;;4.10;;
7051;SDS011;3567;52.444;13.556;2023-04-01T03:16:14;6.30;;;4.10;;
7051;SDS011;3567;52.444;13.556;2023-04-01T03:18:39;8.15;;;3.70;;
7051;SDS011;3567;52.444;13.556;2023-04-01T03:21:12;6.55;;;4.45;;
7051;SDS011;3567;52.444;13.556;2023-04-01T03:23:47;8.93;;;4.35;;
7051;SDS011;3567;52.444;13.556;2023-04-01T03:26:13;8.25;;;4.95;;
7051;SDS011;3567;52.444;13.556;2023-04-01T03:28:39;14.48;;;6.65;;
7051;SDS011;3567;52.444;13.556;2023-04-01T03:31:04;6.35;;;4.32;;
7051;SDS011;3567;52.444;13.556;2023-04-01T03:33:30;10.50;;;4.32;;
7051;SDS011;3567;52.444;13.556;2023-04-01T03:35:56;9.10;;;4.40;;
7051;SDS011;3567;52.444;13.556;2023-04-01T03:38:21;7.85;;;4.10;;
7051;SDS011;3567;52.444;13.556;2023-04-01T03:40:47;8.00;;;4.25;;
7051;SDS011;3567;52.444;13.556;2023-04-01T03:43:12;8.60;;;4.90;;
7051;SDS011;3567;52.444;13.556;2023-04-01T03:45:47;8.50;;;4.05;;
7051;SDS011;3567;52.444;13.556;2023-04-01T03:48:14;9.23;;;4.57;;
7051;SDS011;3567;52.444;13.556;2023-04-01T03:50:40;9.15;;;4.50;;
7051;SDS011;3567;52.444;13.556;2023-04-01T03:53:06;6.60;;;4.30;;
7051;SDS011;3567;52.444;13.556;2023-04-01T03:55:32;6.07;;;3.95;;
7051;SDS011;3567;52.444;13.556;2023-04-01T03:57:57;11.25;;;4.85;;
7051;SDS011;3567;52.444;13.556;2023-04-01T04:00:23;6.18;;;4.22;;
7051;SDS011;3567;52.444;13.556;2023-04-01T04:02:48;9.52;;;4.53;;
7051;SDS011;3567;52.444;13.556;2023-04-01T04:05:14;8.32;;;4.88;;
7051;SDS011;3567;52.444;13.556;2023-04-01T04:07:39;5.10;;;4.13;;
7051;SDS011;3567;52.444;13.556;2023-04-01T04:10:05;8.43;;;5.28;;
7051;SDS011;3567;52.444;13.556;2023-04-01T04:12:31;6.85;;;4.85;;
7051;SDS011;3567;52.444;13.556;2023-04-01T04:14:57;7.85;;;4.55;;
7051;SDS011;3567;52.444;13.556;2023-04-01T04:17:22;7.20;;;3.83;;
7051;SDS011;3567;52.444;13.556;2023-04-01T04:19:47;14.10;;;4.63;;
7051;SDS011;3567;52.444;13.556;2023-04-01T04:22:13;7.35;;;4.50;;
7051;SDS011;3567;52.444;13.556;2023-04-01T04:24:38;7.05;;;4.45;;
7051;SDS011;3567;52.444;13.556;2023-04-01T04:27:03;10.93;;;4.20;;
7051;SDS011;3567;52.444;13.556;2023-04-01T04:29:29;8.38;;;5.05;;
7051;SDS011;3567;52.444;13.556;2023-04-01T04:31:54;13.27;;;5.00;;
7051;SDS011;3567;52.444;13.556;2023-04-01T04:34:20;14.85;;;4.88;;
7051;SDS011;3567;52.444;13.556;2023-04-01T04:36:47;8.20;;;5.10;;
7051;SDS011;3567;52.444;13.556;2023-04-01T04:39:12;7.60;;;4.28;;
7051;SDS011;3567;52.444;13.556;2023-04-01T04:41:38;14.70;;;6.50;;
7051;SDS011;3567;52.444;13.556;2023-04-01T04:44:03;11.35;;;5.80;;
7051;SDS011;3567;52.444;13.556;2023-04-01T04:46:28;11.85;;;5.57;;
7051;SDS011;3567;52.444;13.556;2023-04-01T04:48:54;8.30;;;5.20;;
7051;SDS011;3567;52.444;13.556;2023-04-01T04:51:20;7.97;;;4.82;;
7051;SDS011;3567;52.444;13.556;2023-04-01T04:53:46;11.25;;;5.78;;
7051;SDS011;3567;52.444;13.556;2023-04-01T04:56:11;7.35;;;4.50;;
7051;SDS011;3567;52.444;13.556;2023-04-01T04:58:37;10.15;;;5.40;;
7051;SDS011;3567;52.444;13.556;2023-04-01T05:01:07;12.73;;;5.93;;
7051;SDS011;3567;52.444;13.556;2023-04-01T05:03:34;11.20;;;5.45;;
7051;SDS011;3567;52.444;13.556;2023-04-01T05:06:00;12.40;;;5.97;;
7051;SDS011;3567;52.444;13.556;2023-04-01T05:08:26;7.35;;;5.32;;
7051;SDS011;3567;52.444;13.556;2023-04-01T05:10:51;10.55;;;5.30;;
7051;SDS011;3567;52.444;13.556;2023-04-01T05:13:16;10.05;;;5.38;;
7051;SDS011;3567;52.444;13.556;2023-04-01T05:15:42;13.18;;;5.43;;
7051;SDS011;3567;52.444;13.556;2023-04-01T05:18:07;14.15;;;6.18;;
7051;SDS011;3567;52.444;13.556;2023-04-01T05:20:32;11.75;;;5.22;;
7051;SDS011;3567;52.444;13.556;2023-04-01T05:22:58;11.27;;;5.85;;
7051;SDS011;3567;52.444;13.556;2023-04-01T05:25:25;11.75;;;5.70;;
7051;SDS011;3567;52.444;13.556;2023-04-01T05:27:50;10.88;;;5.65;;
7051;SDS011;3567;52.444;13.556;2023-04-01T05:30:16;10.57;;;5.30;;
7051;SDS011;3567;52.444;13.556;2023-04-01T05:32:42;12.77;;;6.13;;
7051;SDS011;3567;52.444;13.556;2023-04-01T05:35:08;12.63;;;5.88;;
7051;SDS011;3567;52.444;13.556;2023-04-01T05:37:35;9.25;;;5.60;;
7051;SDS011;3567;52.444;13.556;2023-04-01T05:40:00;10.32;;;5.45;;
7051;SDS011;3567;52.444;13.556;2023-04-01T05:42:26;13.98;;;5.95;;
7051;SDS011;3567;52.444;13.556;2023-04-01T05:44:51;11.95;;;5.55;;
7051;SDS011;3567;52.444;13.556;2023-04-01T05:47:17;14.30;;;6.00;;
7051;SDS011;3567;52.444;13.556;2023-04-01T05:49:42;12.25;;;6.07;;
7051;SDS011;3567;52.444;13.556;2023-04-01T05:52:08;11.75;;;6.47;;
7051;SDS011;3567;52.444;13.556;2023-04-01T05:54:33;12.15;;;5.43;;
7051;SDS011;3567;52.444;13.556;2023-04-01T05:56:59;15.70;;;6.32;;
7051;SDS011;3567;52.444;13.556;2023-04-01T05:59:24;12.82;;;6.35;;
7051;SDS011;3567;52.444;13.556;2023-04-01T06:01:49;21.52;;;6.78;;
7051;SDS011;3567;52.444;13.556;2023-04-01T06:04:15;11.32;;;6.32;;
7051;SDS011;3567;52.444;13.556;2023-04-01T06:06:42;11.05;;;5.50;;
7051;SDS011;3567;52.444;13.556;2023-04-01T06:19:59;14.75;;;6.32;;
7051;SDS011;3567;52.444;13.556;2023-04-01T06:25:29;15.25;;;6.82;;
7051;SDS011;3567;52.444;13.556;2023-04-01T06:28:21;13.70;;;6.70;;
7051;SDS011;3567;52.444;13.556;2023-04-01T06:55:38;12.40;;;7.75;;
7051;SDS011;3567;52.444;13.556;2023-04-01T06:58:24;14.18;;;5.88;;
7051;SDS011;3567;52.444;13.556;2023-04-01T07:00:58;11.10;;;5.63;;
7051;SDS011;3567;52.444;13.556;2023-04-01T07:06:28;12.55;;;6.43;;
7051;SDS011;3567;52.444;13.556;2023-04-01T07:09:00;18.30;;;7.10;;
7051;SDS011;3567;52.444;13.556;2023-04-01T07:11:34;12.35;;;7.18;;
7051;SDS011;3567;52.444;13.556;2023-04-01T07:14:04;7.68;;;5.18;;
7051;SDS011;3567;52.444;13.556;2023-04-01T07:16:43;10.18;;;5.35;;
7051;SDS011;3567;52.444;13.556;2023-04-01T07:21:48;10.00;;;5.18;;
7051;SDS011;3567;52.444;13.556;2023-04-01T07:26:44;9.18;;;5.22;;
7051;SDS011;3567;52.444;13.556;2023-04-01T07:29:11;9.90;;;5.32;;
7051;SDS011;3567;52.444;13.556;2023-04-01T07:34:15;14.45;;;6.32;;
7051;SDS011;3567;52.444;13.556;2023-04-01T07:36:43;13.25;;;4.97;;
7051;SDS011;3567;52.444;13.556;2023-04-01T07:47:39;11.35;;;5.60;;
7051;SDS011;3567;52.444;13.556;2023-04-01T07:50:21;10.13;;;5.30;;
7051;SDS011;3567;52.444;13.556;2023-04-01T07:53:14;17.08;;;6.78;;
7051;SDS011;3567;52.444;13.556;2023-04-01T07:55:49;8.35;;;5.28;;
7051;SDS011;3567;52.444;13.556;2023-04-01T07:58:27;11.15;;;5.95;;
7051;SDS011;3567;52.444;13.556;2023-04-01T08:01:02;9.63;;;5.47;;
7051;SDS011;3567;52.444;13.556;2023-04-01T08:07:15;10.48;;;6.38;;
7051;SDS011;3567;52.444;13.556;2023-04-01T08:12:08;14.55;;;9.07;;
7051;SDS011;3567;52.444;13.556;2023-04-01T08:14:59;11.40;;;6.57;;
7051;SDS011;3567;52.444;13.556;2023-04-01T08:23:13;11.95;;;5.55;;
7051;SDS011;3567;52.444;13.556;2023-04-01T08:25:48;11.38;;;5.53;;
7051;SDS011;3567;52.444;13.556;2023-04-01T08:31:04;9.02;;;4.55;;
7051;SDS011;3567;52.444;13.556;2023-04-01T08:33:35;7.30;;;4.88;;
7051;SDS011;3567;52.444;13.556;2023-04-01T08:36:37;7.72;;;4.80;;
7051;SDS011;3567;52.444;13.556;2023-04-01T08:38:59;10.27;;;5.05;;
7051;SDS011;3567;52.444;13.556;2023-04-01T08:55:01;11.70;;;7.53;;
7051;SDS011;3567;52.444;13.556;2023-04-01T08:57:53;14.88;;;9.45;;
7051;SDS011;3567;52.444;13.556;2023-04-01T09:05:41;17.10;;;11.80;;
7051;SDS011;3567;52.444;13.556;2023-04-01T09:36:55;9.80;;;8.35;;
7051;SDS011;3567;52.444;13.556;2023-04-01T09:39:34;10.68;;;8.32;;
7051;SDS011;3567;52.444;13.556;2023-04-01T09:44:58;14.15;;;9.40;;
7051;SDS011;3567;52.444;13.556;2023-04-01T09:50:14;12.30;;;10.50;;
7051;SDS011;3567;52.444;13.556;2023-04-01T09:55:49;12.40;;;10.50;;
7051;SDS011;3567;52.444;13.556;2023-04-01T10:09:50;12.52;;;10.90;;
7051;SDS011;3567;52.444;13.556;2023-04-01T10:18:09;16.52;;;12.93;;
7051;SDS011;3567;52.444;13.556;2023-04-01T10:31:52;13.65;;;12.25;;
7051;SDS011;3567;52.444;13.556;2023-04-01T10:56:59;11.02;;;10.02;;
7051;SDS011;3567;52.444;13.556;2023-04-01T11:28:14;6.45;;;5.85;;
7051;SDS011;3567;52.444;13.556;2023-04-01T11:33:17;5.45;;;5.05;;
7051;SDS011;3567;52.444;13.556;2023-04-01T11:36:00;5.60;;;5.10;;
7051;SDS011;3567;52.444;13.556;2023-04-01T11:38:42;6.60;;;5.90;;
7051;SDS011;3567;52.444;13.556;2023-04-01T11:44:21;6.40;;;5.80;;
7051;SDS011;3567;52.444;13.556;2023-04-01T11:52:40;3.97;;;3.58;;
7051;SDS011;3567;52.444;13.556;2023-04-01T12:00:59;5.32;;;4.15;;
7051;SDS011;3567;52.444;13.556;2023-04-01T12:09:25;5.57;;;3.90;;
7051;SDS011;3567;52.444;13.556;2023-04-01T12:12:12;4.47;;;3.78;;
7051;SDS011;3567;52.444;13.556;2023-04-01T12:20:55;5.68;;;5.18;;
7051;SDS011;3567;52.444;13.556;2023-04-01T12:34:19;4.40;;;4.00;;
7051;SDS011;3567;52.444;13.556;2023-04-01T12:42:05;4.38;;;4.07;;
7051;SDS011;3567;52.444;13.556;2023-04-01T12:55:33;5.88;;;3.80;;
7051;SDS011;3567;52.444;13.556;2023-04-01T12:58:06;8.07;;;5.18;;
7051;SDS011;3567;52.444;13.556;2023-04-01T13:20:03;4.70;;;4.40;;
7051;SDS011;3567;52.444;13.556;2023-04-01T13:29:07;4.80;;;4.18;;
7051;SDS011;3567;52.444;13.556;2023-04-01T13:40:39;5.50;;;5.03;;
7051;SDS011;3567;52.444;13.556;2023-04-01T13:43:24;4.65;;;4.07;;
7051;SDS011;3567;52.444;13.556;2023-04-01T13:48:45;4.43;;;4.03;;
7051;SDS011;3567;52.444;13.556;2023-04-01T14:11:03;4.57;;;4.00;;
7051;SDS011;3567;52.444;13.556;2023-04-01T14:16:38;9.63;;;7.40;;
7051;SDS011;3567;52.444;13.556;2023-04-01T14:22:24;9.10;;;7.07;;
7051;SDS011;3567;52.444;13.556;2023-04-01T14:25:16;9.93;;;8.93;;
7051;SDS011;3567;52.444;13.556;2023-04-01T14:36:47;10.50;;;9.60;;
7051;SDS011;3567;52.444;13.556;2023-04-01T14:48:07;7.07;;;6.43;;
7051;SDS011;3567;52.444;13.556;2023-04-01T14:50:46;8.23;;;7.13;;
7051;SDS011;3567;52.444;13.556;2023-04-01T14:53:27;7.75;;;6.45;;
7051;SDS011;3567;52.444;13.556;2023-04-01T14:55:58;8.60;;;7.28;;
7051;SDS011;3567;52.444;13.556;2023-04-01T15:12:11;8.43;;;7.63;;
7051;SDS011;3567;52.444;13.556;2023-04-01T15:22:32;6.38;;;5.05;;
7051;SDS011;3567;52.444;13.556;2023-04-01T15:28:20;5.18;;;4.78;;
7051;SDS011;3567;52.444;13.556;2023-04-01T15:33:38;4.57;;;4.20;;
7051;SDS011;3567;52.444;13.556;2023-04-01T15:44:02;3.80;;;3.55;;
7051;SDS011;3567;52.444;13.556;2023-04-01T15:46:46;4.10;;;3.80;;
7051;SDS011;3567;52.444;13.556;2023-04-01T15:54:52;7.60;;;6.90;;
7051;SDS011;3567;52.444;13.556;2023-04-01T15:57:48;7.15;;;6.43;;
7051;SDS011;3567;52.444;13.556;2023-04-01T16:00:28;8.05;;;7.07;;
7051;SDS011;3567;52.444;13.556;2023-04-01T16:19:44;3.75;;;2.85;;
7051;SDS011;3567;52.444;13.556;2023-04-01T16:33:35;4.70;;;4.40;;
7051;SDS011;3567;52.444;13.556;2023-04-01T16:44:50;5.30;;;4.90;;
7051;SDS011;3567;52.444;13.556;2023-04-01T16:47:22;6.75;;;5.55;;
7051;SDS011;3567;52.444;13.556;2023-04-01T16:49:56;7.60;;;6.55;;
7051;SDS011;3567;52.444;13.556;2023-04-01T16:52:55;8.00;;;7.05;;
7051;SDS011;3567;52.444;13.556;2023-04-01T16:58:37;8.15;;;7.25;;
7051;SDS011;3567;52.444;13.556;2023-04-01T17:01:42;6.28;;;5.78;;
7051;SDS011;3567;52.444;13.556;2023-04-01T17:09:57;5.32;;;4.75;;
7051;SDS011;3567;52.444;13.556;2023-04-01T17:17:44;5.03;;;4.55;;
7051;SDS011;3567;52.444;13.556;2023-04-01T17:26:03;5.05;;;4.55;;
7051;SDS011;3567;52.444;13.556;2023-04-01T17:32:01;5.78;;;5.20;;
7051;SDS011;3567;52.444;13.556;2023-04-01T17:34:46;6.10;;;5.60;;
7051;SDS011;3567;52.444;13.556;2023-04-01T17:40:31;6.95;;;6.38;;
7051;SDS011;3567;52.444;13.556;2023-04-01T17:47:00;8.57;;;6.70;;
7051;SDS011;3567;52.444;13.556;2023-04-01T17:49:02;6.95;;;6.35;;
7051;SDS011;3567;52.444;13.556;2023-04-01T17:54:46;8.50;;;6.07;;
7051;SDS011;3567;52.444;13.556;2023-04-01T18:00:24;5.57;;;5.00;;
7051;SDS011;3567;52.444;13.556;2023-04-01T18:12:09;6.28;;;5.70;;
7051;SDS011;3567;52.444;13.556;2023-04-01T18:18:37;7.40;;;5.95;;
7051;SDS011;3567;52.444;13.556;2023-04-01T18:26:26;6.32;;;5.43;;
7051;SDS011;3567;52.444;13.556;2023-04-01T18:28:57;6.07;;;5.45;;
7051;SDS011;3567;52.444;13.556;2023-04-01T18:31:36;4.50;;;4.10;;
7051;SDS011;3567;52.444;13.556;2023-04-01T18:40:13;4.30;;;3.72;;
7051;SDS011;3567;52.444;13.556;2023-04-01T18:46:07;4.90;;;3.72;;
7051;SDS011;3567;52.444;13.556;2023-04-01T18:51:55;4.07;;;3.60;;
7051;SDS011;3567;52.444;13.556;2023-04-01T18:54:31;4.72;;;4.07;;
7051;SDS011;3567;52.444;13.556;2023-04-01T18:57:15;6.63;;;4.28;;
7051;SDS011;3567;52.444;13.556;2023-04-01T18:59:53;5.85;;;4.63;;
7051;SDS011;3567;52.444;13.556;2023-04-01T19:02:39;4.90;;;3.88;;
7051;SDS011;3567;52.444;13.556;2023-04-01T19:10:15;5.75;;;4.18;;
7051;SDS011;3567;52.444;13.556;2023-04-01T19:48:00;5.57;;;4.63;;
7051;SDS011;3567;52.444;13.556;2023-04-01T19:50:40;10.52;;;5.18;;
7051;SDS011;3567;52.444;13.556;2023-04-01T19:53:18;10.27;;;6.10;;
7051;SDS011;3567;52.444;13.556;2023-04-01T20:01:34;10.88;;;6.70;;
7051;SDS011;3567;52.444;13.556;2023-04-01T20:04:08;11.55;;;6.90;;
7051;SDS011;3567;52.444;13.556;2023-04-01T20:11:55;8.02;;;6.60;;
7051;SDS011;3567;52.444;13.556;2023-04-01T20:19:39;9.68;;;7.00;;
7051;SDS011;3567;52.444;13.556;2023-04-01T20:22:32;7.13;;;6.43;;
7051;SDS011;3567;52.444;13.556;2023-04-01T20:25:11;9.35;;;6.80;;
7051;SDS011;3567;52.444;13.556;2023-04-01T20:27:44;8.45;;;6.78;;
7051;SDS011;3567;52.444;13.556;2023-04-01T20:35:35;7.97;;;6.40;;
7051;SDS011;3567;52.444;13.556;2023-04-01T20:40:50;9.57;;;6.43;;
7051;SDS011;3567;52.444;13.556;2023-04-01T20:43:28;7.95;;;5.80;;
7051;SDS011;3567;52.444;13.556;2023-04-01T20:48:59;6.85;;;5.97;;
7051;SDS011;3567;52.444;13.556;2023-04-01T20:54:32;13.10;;;6.93;;
7051;SDS011;3567;52.444;13.556;2023-04-01T20:57:25;7.18;;;5.70;;
7051;SDS011;3567;52.444;13.556;2023-04-01T21:00:03;9.90;;;6.78;;
7051;SDS011;3567;52.444;13.556;2023-04-01T21:07:58;9.95;;;6.93;;
7051;SDS011;3567;52.444;13.556;2023-04-01T21:10:40;12.60;;;7.70;;
7051;SDS011;3567;52.444;13.556;2023-04-01T21:15:48;7.90;;;6.78;;
7051;SDS011;3567;52.444;13.556;2023-04-01T21:27:00;13.32;;;7.45;;
7051;SDS011;3567;52.444;13.556;2023-04-01T21:37:48;8.10;;;7.30;;
7051;SDS011;3567;52.444;13.556;2023-04-01T22:00:24;12.35;;;6.60;;
7051;SDS011;3567;52.444;13.556;2023-04-01T22:07:54;13.02;;;5.97;;
7051;SDS011;3567;52.444;13.556;2023-04-01T22:13:29;8.48;;;5.30;;
7051;SDS011;3567;52.444;13.556;2023-04-01T22:16:16;7.40;;;5.47;;
7051;SDS011;3567;52.444;13.556;2023-04-01T22:19:28;9.60;;;5.88;;
7051;SDS011;3567;52.444;13.556;2023-04-01T22:22:45;6.25;;;5.57;;
7051;SDS011;3567;52.444;13.556;2023-04-01T22:25:17;7.07;;;4.70;;
7051;SDS011;3567;52.444;13.556;2023-04-01T22:30:36;7.13;;;4.97;;
7051;SDS011;3567;52.444;13.556;2023-04-01T22:38:44;11.02;;;5.07;;
7051;SDS011;3567;52.444;13.556;2023-04-01T22:47:04;3.70;;;3.33;;
7051;SDS011;3567;52.444;13.556;2023-04-01T22:50:03;7.32;;;3.78;;
7051;SDS011;3567;52.444;13.556;2023-04-01T22:52:38;11.45;;;4.55;;
7051;SDS011;3567;52.444;13.556;2023-04-01T22:55:13;4.63;;;3.65;;
7051;SDS011;3567;52.444;13.556;2023-04-01T22:57:57;6.03;;;4.00;;
7051;SDS011;3567;52.444;13.556;2023-04-01T23:03:06;7.40;;;4.13;;
7051;SDS011;3567;52.444;13.556;2023-04-01T23:05:51;5.15;;;3.53;;
7051;SDS011;3567;52.444;13.556;2023-04-01T23:10:59;6.07;;;4.03;;
7051;SDS011;3567;52.444;13.556;2023-04-01T23:13:30;8.73;;;4.10;;
7051;SDS011;3567;52.444;13.556;2023-04-01T23:16:00;4.20;;;3.80;;
7051;SDS011;3567;52.444;13.556;2023-04-01T23:29:01;7.32;;;3.58;;
7051;SDS011;3567;52.444;13.556;2023-04-01T23:31:36;7.00;;;3.35;;
7051;SDS011;3567;52.444;13.556;2023-04-01T23:36:38;5.65;;;2.92;;
7051;SDS011;3567;52.444;13.556;2023-04-01T23:39:13;4.65;;;3.17;;
7051;SDS011;3567;52.444;13.556;2023-04-01T23:41:48;6.53;;;3.00;;
7051;SDS011;3567;52.444;13.556;2023-04-01T23:44:17;7.30;;;3.13;;
7051;SDS011;3567;52.444;13.556;2023-04-01T23:46:42;3.63;;;3.33;;
7051;SDS011;3567;52.444;13.556;2023-04-01T23:49:24;3.80;;;3.03;;
7051;SDS011;3567;52.444;13.556;2023-04-01T23:51:56;7.55;;;3.58;;
7051;SDS011;3567;52.444;13.556;2023-04-01T23:54:26;6.13;;;3.45;;
7051;SDS011;3567;52.444;13.556;2023-04-01T23:56:56;8.07;;;3.10;;
7051;SDS011;3567;52.444;13.556;2023-04-01T23:59:44;5.05;;;2.80;;
